createdAt,value
2017-07-06T00:01:54.893Z,19.17
2017-07-06T00:04:22.426Z,18.37
2017-07-06T00:06:50.211Z,17.37
2017-07-06T00:09:17.722Z,15.70
2017-07-06T00:11:46.004Z,17.23
2017-07-06T00:14:13.540Z,17.90
2017-07-06T00:16:41.883Z,19.02
2017-07-06T00:19:09.546Z,17.87
2017-07-06T00:21:37.057Z,17.83
2017-07-06T00:24:04.627Z,17.60
2017-07-06T00:26:32.187Z,17.05
2017-07-06T00:28:59.737Z,19.27
2017-07-06T00:31:27.550Z,17.95
2017-07-06T00:33:55.069Z,18.02
2017-07-06T00:36:22.654Z,18.67
2017-07-06T00:38:51.416Z,19.00
2017-07-06T00:41:18.973Z,18.25
2017-07-06T00:43:46.489Z,17.75
2017-07-06T00:46:14.813Z,17.00
2017-07-06T00:48:42.411Z,16.50
2017-07-06T00:51:10.279Z,14.68
2017-07-06T00:53:38.621Z,14.38
2017-07-06T00:56:06.166Z,16.70
2017-07-06T00:58:33.701Z,16.37
2017-07-06T01:01:02.144Z,16.85
2017-07-06T01:03:29.684Z,16.80
2017-07-06T01:05:57.284Z,18.27
2017-07-06T01:08:24.793Z,17.52
2017-07-06T01:10:52.373Z,17.98
2017-07-06T01:13:19.970Z,19.60
2017-07-06T01:15:47.571Z,18.70
2017-07-06T01:18:15.078Z,18.50
2017-07-06T01:20:42.584Z,17.62
2017-07-06T01:23:10.618Z,19.52
2017-07-06T01:25:38.125Z,18.37
2017-07-06T01:28:05.694Z,17.65
2017-07-06T01:30:33.993Z,18.58
2017-07-06T01:33:01.561Z,19.87
2017-07-06T01:35:29.537Z,21.55
2017-07-06T01:37:57.414Z,21.30
2017-07-06T01:40:25.030Z,20.25
2017-07-06T01:42:52.569Z,19.50
2017-07-06T01:45:20.866Z,20.73
2017-07-06T01:47:48.377Z,21.02
2017-07-06T01:50:15.970Z,20.35
2017-07-06T01:52:44.331Z,21.35
2017-07-06T01:55:11.860Z,20.37
2017-07-06T01:57:39.533Z,20.92
2017-07-06T02:00:07.381Z,20.60
2017-07-06T02:02:34.936Z,21.45
2017-07-06T02:05:02.449Z,20.83
2017-07-06T02:07:29.985Z,19.90
2017-07-06T02:09:58.294Z,29.63
2017-07-06T02:12:25.868Z,20.00
2017-07-06T02:14:53.382Z,19.73
2017-07-06T02:17:21.197Z,26.27
2017-07-06T02:19:48.717Z,21.50
2017-07-06T02:22:16.283Z,20.15
2017-07-06T02:24:44.022Z,23.38
2017-07-06T02:27:12.554Z,22.92
2017-07-06T02:29:40.155Z,24.50
2017-07-06T02:32:08.693Z,21.50
2017-07-06T02:34:36.248Z,22.33
2017-07-06T02:37:03.801Z,21.85
2017-07-06T02:39:31.330Z,19.70
2017-07-06T02:41:59.243Z,19.77
2017-07-06T02:44:27.108Z,20.33
2017-07-06T02:46:54.670Z,22.08
2017-07-06T02:49:22.233Z,31.08
2017-07-06T02:51:49.851Z,22.25
2017-07-06T02:54:17.408Z,25.05
2017-07-06T02:56:44.968Z,22.25
2017-07-06T02:59:12.477Z,21.37
2017-07-06T03:01:40.338Z,29.75
2017-07-06T03:04:07.878Z,22.95
2017-07-06T03:06:35.467Z,21.70
2017-07-06T03:09:03.838Z,22.25
2017-07-06T03:11:32.191Z,22.92
2017-07-06T03:13:59.738Z,22.75
2017-07-06T03:16:27.246Z,26.92
2017-07-06T03:18:54.788Z,27.35
2017-07-06T03:21:22.356Z,29.80
2017-07-06T03:23:50.713Z,27.45
2017-07-06T03:26:18.250Z,23.60
2017-07-06T03:28:46.101Z,21.52
2017-07-06T03:31:13.964Z,22.37
2017-07-06T03:33:41.498Z,29.90
2017-07-06T03:36:09.302Z,32.72
2017-07-06T03:38:36.853Z,31.23
2017-07-06T03:41:04.402Z,21.40
2017-07-06T03:43:31.918Z,22.02
2017-07-06T03:45:59.449Z,16.83
2017-07-06T03:48:26.986Z,20.30
2017-07-06T03:50:54.838Z,20.27
2017-07-06T03:53:22.413Z,27.98
2017-07-06T03:55:49.971Z,27.73
2017-07-06T03:58:17.505Z,26.00
2017-07-06T04:00:45.285Z,21.50
2017-07-06T04:03:12.821Z,25.08
2017-07-06T04:05:40.390Z,31.17
2017-07-06T04:08:07.957Z,19.17
2017-07-06T04:10:35.470Z,18.80
2017-07-06T04:13:03.020Z,17.87
2017-07-06T04:15:31.014Z,18.35
2017-07-06T04:17:58.596Z,19.70
2017-07-06T04:20:26.130Z,17.37
2017-07-06T04:22:53.650Z,16.15
2017-07-06T04:25:21.562Z,18.65
2017-07-06T04:27:49.074Z,17.02
2017-07-06T04:30:16.587Z,17.95
2017-07-06T04:32:44.191Z,16.90
2017-07-06T04:35:11.718Z,17.52
2017-07-06T04:37:39.315Z,15.98
2017-07-06T04:40:06.877Z,15.73
2017-07-06T04:42:34.770Z,16.60
2017-07-06T04:45:02.276Z,16.33
2017-07-06T04:47:30.558Z,15.60
2017-07-06T04:49:58.089Z,16.05
2017-07-06T04:52:25.598Z,18.58
2017-07-06T04:54:53.210Z,13.77
2017-07-06T04:57:20.821Z,14.98
2017-07-06T04:59:48.362Z,16.40
2017-07-06T05:02:16.323Z,15.65
2017-07-06T05:04:43.910Z,15.32
2017-07-06T05:07:11.510Z,14.30
2017-07-06T05:09:39.794Z,14.93
2017-07-06T05:12:08.122Z,14.40
2017-07-06T05:14:35.627Z,14.07
2017-07-06T05:17:03.180Z,15.23
2017-07-06T05:19:31.469Z,12.82
2017-07-06T05:21:59.032Z,13.98
2017-07-06T05:24:27.918Z,13.00
2017-07-06T05:26:55.481Z,14.05
2017-07-06T05:29:23.058Z,12.20
2017-07-06T05:31:50.865Z,13.05
2017-07-06T05:34:19.410Z,11.12
2017-07-06T05:36:46.946Z,10.77
2017-07-06T05:39:14.505Z,11.10
2017-07-06T05:41:42.348Z,10.17
2017-07-06T05:44:09.909Z,10.37
2017-07-06T05:46:37.446Z,10.17
2017-07-06T05:49:04.954Z,9.07
2017-07-06T05:51:32.529Z,10.70
2017-07-06T05:54:00.038Z,9.30
2017-07-06T05:56:27.573Z,9.73
2017-07-06T05:58:55.893Z,9.47
2017-07-06T06:01:23.777Z,9.50
2017-07-06T06:03:51.286Z,9.33
2017-07-06T06:06:18.845Z,8.50
2017-07-06T06:08:47.190Z,9.57
2017-07-06T06:11:14.752Z,8.40
2017-07-06T06:13:42.587Z,8.57
2017-07-06T06:16:10.378Z,8.93
2017-07-06T06:18:37.922Z,9.03
2017-07-06T06:21:05.430Z,9.03
2017-07-06T06:23:33.230Z,10.30
2017-07-06T06:26:00.793Z,10.23
2017-07-06T06:28:28.359Z,9.10
2017-07-06T06:30:55.921Z,8.87
2017-07-06T06:33:23.425Z,8.87
2017-07-06T06:35:50.984Z,10.27
2017-07-06T06:38:18.509Z,10.27
2017-07-06T06:40:46.149Z,10.43
2017-07-06T06:43:13.710Z,9.67
2017-07-06T06:45:41.281Z,10.07
2017-07-06T06:48:09.111Z,9.93
2017-07-06T06:50:36.620Z,10.53
2017-07-06T06:53:04.176Z,9.47
2017-07-06T06:55:32.467Z,10.40
2017-07-06T06:58:00.042Z,9.40
2017-07-06T07:00:27.545Z,9.97
2017-07-06T07:02:55.097Z,10.13
2017-07-06T07:05:22.609Z,10.40
2017-07-06T07:07:50.391Z,8.50
2017-07-06T07:10:17.974Z,8.97
2017-07-06T07:12:45.519Z,9.03
2017-07-06T07:15:13.058Z,9.43
2017-07-06T07:17:40.622Z,8.03
2017-07-06T07:20:08.158Z,9.30
2017-07-06T07:22:35.693Z,7.90
2017-07-06T07:25:04.335Z,9.93
2017-07-06T07:27:31.927Z,9.10
2017-07-06T07:30:00.203Z,8.60
2017-07-06T07:32:28.560Z,8.40
2017-07-06T07:34:56.067Z,9.37
2017-07-06T07:37:23.589Z,9.87
2017-07-06T07:39:51.879Z,9.10
2017-07-06T07:42:19.484Z,8.30
2017-07-06T07:44:46.998Z,8.03
2017-07-06T07:47:14.595Z,9.57
2017-07-06T07:49:42.108Z,14.90
2017-07-06T07:52:09.641Z,9.27
2017-07-06T07:54:37.213Z,9.33
2017-07-06T07:57:05.788Z,9.47
2017-07-06T07:59:34.318Z,8.10
2017-07-06T08:02:01.851Z,8.20
2017-07-06T08:04:29.424Z,7.80
2017-07-06T08:06:56.994Z,7.90
2017-07-06T08:09:24.578Z,9.98
2017-07-06T08:11:52.109Z,8.68
2017-07-06T08:14:19.630Z,8.33
2017-07-06T08:16:47.464Z,7.70
2017-07-06T08:19:15.007Z,7.43
2017-07-06T08:21:42.625Z,7.93
2017-07-06T08:24:10.143Z,8.57
2017-07-06T08:26:38.434Z,8.40
2017-07-06T08:29:06.734Z,8.40
2017-07-06T08:31:34.327Z,10.60
2017-07-06T08:34:01.833Z,9.10
2017-07-06T08:36:29.331Z,9.77
2017-07-06T08:38:57.187Z,7.70
2017-07-06T08:41:24.738Z,8.83
2017-07-06T08:43:52.367Z,8.00
2017-07-06T08:46:20.165Z,7.60
2017-07-06T08:48:47.697Z,8.50
2017-07-06T08:51:15.198Z,9.23
2017-07-06T08:53:42.830Z,8.10
2017-07-06T08:56:10.339Z,8.77
2017-07-06T08:58:38.661Z,8.77
2017-07-06T09:01:06.189Z,7.70
2017-07-06T09:03:33.690Z,9.20
2017-07-06T09:06:01.218Z,8.10
2017-07-06T09:08:28.721Z,8.97
2017-07-06T09:10:56.302Z,9.30
2017-07-06T09:13:24.625Z,9.53
2017-07-06T09:15:52.181Z,9.93
2017-07-06T09:18:19.702Z,8.40
2017-07-06T09:20:48.015Z,8.37
2017-07-06T09:23:15.537Z,8.87
2017-07-06T09:25:43.065Z,8.97
2017-07-06T09:28:10.650Z,7.90
2017-07-06T09:30:38.962Z,8.60
2017-07-06T09:33:06.728Z,9.17
2017-07-06T09:35:34.496Z,8.40
2017-07-06T09:38:02.094Z,9.00
2017-07-06T09:40:30.373Z,10.03
2017-07-06T09:42:57.955Z,8.90
2017-07-06T09:45:25.527Z,9.50
2017-07-06T09:47:53.081Z,11.20
2017-07-06T09:50:20.649Z,10.23
2017-07-06T09:52:48.173Z,10.18
2017-07-06T09:55:16.465Z,9.83
2017-07-06T09:57:44.253Z,8.87
2017-07-06T10:00:11.847Z,10.60
2017-07-06T10:02:40.136Z,9.77
2017-07-06T10:05:07.650Z,9.32
2017-07-06T10:07:35.181Z,8.40
2017-07-06T10:10:02.720Z,10.80
2017-07-06T10:12:30.262Z,9.53
2017-07-06T10:14:57.808Z,7.97
2017-07-06T10:17:25.635Z,7.93
2017-07-06T10:19:53.201Z,9.40
2017-07-06T10:22:20.739Z,10.13
2017-07-06T10:24:48.237Z,8.83
2017-07-06T10:27:15.742Z,9.00
2017-07-06T10:29:43.319Z,10.13
2017-07-06T10:32:10.841Z,8.50
2017-07-06T10:34:38.432Z,11.32
2017-07-06T10:37:05.949Z,8.48
2017-07-06T10:39:33.486Z,8.75
2017-07-06T10:42:02.049Z,9.00
2017-07-06T10:44:29.890Z,8.65
2017-07-06T10:46:57.406Z,9.20
2017-07-06T10:49:25.215Z,9.45
2017-07-06T10:51:52.747Z,11.02
2017-07-06T10:54:20.301Z,8.27
2017-07-06T10:56:47.837Z,12.80
2017-07-06T10:59:15.347Z,8.05
2017-07-06T11:01:42.885Z,8.95
2017-07-06T11:04:10.402Z,7.47
2017-07-06T11:06:38.935Z,8.30
2017-07-06T11:09:06.526Z,10.55
2017-07-06T11:11:34.092Z,9.95
2017-07-06T11:14:02.409Z,8.20
2017-07-06T11:16:30.957Z,9.27
2017-07-06T11:18:58.678Z,11.10
2017-07-06T11:21:26.218Z,11.43
2017-07-06T11:23:55.729Z,9.02
2017-07-06T11:26:23.338Z,10.10
2017-07-06T11:28:51.660Z,9.23
2017-07-06T11:31:19.202Z,8.20
2017-07-06T11:33:46.756Z,7.25
2017-07-06T11:36:14.333Z,7.78
2017-07-06T11:38:41.849Z,7.28
2017-07-06T11:41:09.393Z,8.20
2017-07-06T11:43:37.678Z,7.95
2017-07-06T11:46:05.498Z,9.90
2017-07-06T11:48:33.105Z,7.80
2017-07-06T11:51:00.699Z,9.18
2017-07-06T11:53:28.272Z,8.32
2017-07-06T11:55:56.025Z,8.20
2017-07-06T11:58:23.625Z,8.85
2017-07-06T12:00:51.955Z,9.82
2017-07-06T12:03:19.492Z,9.80
2017-07-06T12:05:47.276Z,7.20
2017-07-06T12:08:15.037Z,9.07
2017-07-06T12:10:42.641Z,6.12
2017-07-06T12:13:10.206Z,8.18
2017-07-06T12:15:38.529Z,8.27
2017-07-06T12:18:06.038Z,8.40
2017-07-06T12:20:33.602Z,7.32
2017-07-06T12:23:01.409Z,7.60
2017-07-06T12:25:29.175Z,7.25
2017-07-06T12:27:56.693Z,8.02
2017-07-06T12:30:24.265Z,7.07
2017-07-06T12:32:51.833Z,8.73
2017-07-06T12:35:19.363Z,6.78
2017-07-06T12:37:47.226Z,7.22
2017-07-06T12:40:14.738Z,8.13
2017-07-06T12:42:42.265Z,7.80
2017-07-06T12:45:10.045Z,6.85
2017-07-06T12:47:37.582Z,8.13
2017-07-06T12:50:05.398Z,7.93
2017-07-06T12:52:32.902Z,7.10
2017-07-06T12:55:00.530Z,7.35
2017-07-06T12:57:28.033Z,7.12
2017-07-06T12:59:55.608Z,7.07
2017-07-06T13:02:23.145Z,7.70
2017-07-06T13:04:50.672Z,7.47
2017-07-06T13:07:18.177Z,7.60
2017-07-06T13:09:45.794Z,7.85
2017-07-06T13:12:13.330Z,7.55
2017-07-06T13:14:40.892Z,7.07
2017-07-06T13:17:09.222Z,6.78
2017-07-06T13:19:37.691Z,7.25
2017-07-06T13:22:05.224Z,8.50
2017-07-06T13:24:32.963Z,6.50
2017-07-06T13:27:00.531Z,6.87
2017-07-06T13:29:28.062Z,5.93
2017-07-06T13:31:55.822Z,7.10
2017-07-06T13:34:24.137Z,7.57
2017-07-06T13:36:51.669Z,8.30
2017-07-06T13:39:20.034Z,7.07
2017-07-06T13:41:48.313Z,7.18
2017-07-06T13:44:16.670Z,5.97
2017-07-06T13:46:44.170Z,8.13
2017-07-06T13:49:11.726Z,6.07
2017-07-06T13:51:39.234Z,7.17
2017-07-06T13:54:06.768Z,6.00
2017-07-06T13:56:34.354Z,6.07
2017-07-06T13:59:02.666Z,6.32
2017-07-06T14:01:30.285Z,6.70
2017-07-06T14:03:57.839Z,8.80
2017-07-06T14:06:25.715Z,6.57
2017-07-06T14:08:53.302Z,7.20
2017-07-06T14:11:21.154Z,7.35
2017-07-06T14:13:48.666Z,7.22
2017-07-06T14:16:16.181Z,8.45
2017-07-06T14:18:43.798Z,9.63
2017-07-06T14:21:11.322Z,7.05
2017-07-06T14:23:38.852Z,8.73
2017-07-06T14:26:06.431Z,8.10
2017-07-06T14:28:34.397Z,7.35
2017-07-06T14:31:02.805Z,7.78
2017-07-06T14:33:30.371Z,7.30
2017-07-06T14:35:57.922Z,8.38
2017-07-06T14:38:25.489Z,7.80
2017-07-06T14:40:53.082Z,7.28
2017-07-06T14:43:20.610Z,6.87
2017-07-06T14:45:48.150Z,8.18
2017-07-06T14:48:15.694Z,7.78
2017-07-06T14:50:43.209Z,8.45
2017-07-06T14:53:11.845Z,7.00
2017-07-06T14:55:39.353Z,8.50
2017-07-06T14:58:06.961Z,5.93
2017-07-06T15:00:35.334Z,6.35
2017-07-06T15:03:03.536Z,6.50
2017-07-06T15:05:31.818Z,5.80
2017-07-06T15:07:59.323Z,7.47
2017-07-06T15:10:26.904Z,7.85
2017-07-06T15:12:54.610Z,7.57
2017-07-06T15:15:22.200Z,6.20
2017-07-06T15:17:52.364Z,6.85
2017-07-06T15:20:20.682Z,6.43
2017-07-06T15:22:48.574Z,7.55
2017-07-06T15:25:16.543Z,7.97
2017-07-06T15:27:44.106Z,8.52
2017-07-06T15:30:11.695Z,7.53
2017-07-06T15:32:40.002Z,6.55
2017-07-06T15:35:07.522Z,7.60
2017-07-06T15:37:36.186Z,8.40
2017-07-06T15:40:03.701Z,8.10
2017-07-06T15:42:31.305Z,7.25
2017-07-06T15:44:58.813Z,6.45
2017-07-06T15:47:26.600Z,10.27
2017-07-06T15:49:54.265Z,6.97
2017-07-06T15:52:21.775Z,7.82
2017-07-06T15:54:50.135Z,7.30
2017-07-06T15:57:18.490Z,6.22
2017-07-06T15:59:46.085Z,7.22
2017-07-06T16:02:13.658Z,7.00
2017-07-06T16:04:41.250Z,6.83
2017-07-06T16:07:09.009Z,7.57
2017-07-06T16:09:36.944Z,7.93
2017-07-06T16:12:04.504Z,6.45
2017-07-06T16:14:32.032Z,6.77
2017-07-06T16:17:00.677Z,5.95
2017-07-06T16:19:28.255Z,6.47
2017-07-06T16:21:55.785Z,5.90
2017-07-06T16:24:23.345Z,5.80
2017-07-06T16:26:50.918Z,6.65
2017-07-06T16:29:18.514Z,6.57
2017-07-06T16:31:46.267Z,8.02
2017-07-06T16:34:14.192Z,6.28
2017-07-06T16:36:41.901Z,6.68
2017-07-06T16:39:10.256Z,7.85
2017-07-06T16:41:37.806Z,8.40
2017-07-06T16:44:05.650Z,8.50
2017-07-06T16:46:33.339Z,7.90
2017-07-06T16:49:00.896Z,7.40
2017-07-06T16:51:28.728Z,9.88
2017-07-06T16:53:56.307Z,9.25
2017-07-06T16:56:23.817Z,8.15
2017-07-06T16:58:51.397Z,8.30
2017-07-06T17:01:18.933Z,9.75
2017-07-06T17:03:46.493Z,8.55
2017-07-06T17:06:14.220Z,10.13
2017-07-06T17:08:42.601Z,9.90
2017-07-06T17:11:10.110Z,10.38
2017-07-06T17:13:37.978Z,9.52
2017-07-06T17:16:05.509Z,10.75
2017-07-06T17:18:33.020Z,9.48
2017-07-06T17:21:00.621Z,11.68
2017-07-06T17:23:28.133Z,11.25
2017-07-06T17:25:55.743Z,11.63
2017-07-06T17:28:23.256Z,10.75
2017-07-06T17:30:50.821Z,8.82
2017-07-06T17:33:19.221Z,9.35
2017-07-06T17:35:46.736Z,10.43
2017-07-06T17:38:14.320Z,10.63
2017-07-06T17:40:42.668Z,11.35
2017-07-06T17:43:10.192Z,10.27
2017-07-06T17:45:37.696Z,9.75
2017-07-06T17:48:05.261Z,11.07
2017-07-06T17:50:33.798Z,11.93
2017-07-06T17:53:01.706Z,9.98
2017-07-06T17:55:30.265Z,8.05
2017-07-06T17:57:58.513Z,10.80
2017-07-06T18:00:26.225Z,10.32
2017-07-06T18:02:53.800Z,10.77
2017-07-06T18:05:21.332Z,10.77
2017-07-06T18:07:49.115Z,9.20
2017-07-06T18:10:16.812Z,11.05
2017-07-06T18:12:44.450Z,9.60
2017-07-06T18:15:11.978Z,12.07
2017-07-06T18:17:40.695Z,11.60
2017-07-06T18:20:08.201Z,11.73
2017-07-06T18:22:35.762Z,10.95
2017-07-06T18:25:03.446Z,11.90
2017-07-06T18:27:31.323Z,11.57
2017-07-06T18:29:59.337Z,10.90
2017-07-06T18:32:27.090Z,10.95
2017-07-06T18:34:54.681Z,16.12
2017-07-06T18:37:22.204Z,11.43
2017-07-06T18:39:49.743Z,11.63
2017-07-06T18:42:17.520Z,11.77
2017-07-06T18:44:46.742Z,12.25
2017-07-06T18:47:15.488Z,12.32
2017-07-06T18:49:45.932Z,12.23
2017-07-06T18:52:13.558Z,12.20
2017-07-06T18:54:41.137Z,11.35
2017-07-06T18:57:08.746Z,10.85
2017-07-06T18:59:38.134Z,11.38
2017-07-06T19:02:05.674Z,10.48
2017-07-06T19:04:33.347Z,10.27
2017-07-06T19:07:00.881Z,11.38
2017-07-06T19:09:28.524Z,13.23
2017-07-06T19:11:56.542Z,11.30
2017-07-06T19:14:24.046Z,11.27
2017-07-06T19:16:51.708Z,13.05
2017-07-06T19:19:19.640Z,11.45
2017-07-06T19:21:47.310Z,11.75
2017-07-06T19:24:15.522Z,11.82
2017-07-06T19:26:44.688Z,12.40
2017-07-06T19:29:13.444Z,11.50
2017-07-06T19:31:41.329Z,11.30
2017-07-06T19:34:09.331Z,11.00
2017-07-06T19:36:37.194Z,11.90
2017-07-06T19:39:04.961Z,11.77
2017-07-06T19:41:32.822Z,12.02
2017-07-06T19:44:00.380Z,12.98
2017-07-06T19:46:27.906Z,12.48
2017-07-06T19:48:55.526Z,12.43
2017-07-06T19:51:23.097Z,12.95
2017-07-06T19:53:51.709Z,11.30
2017-07-06T19:56:19.314Z,12.55
2017-07-06T19:58:46.881Z,13.10
2017-07-06T20:01:14.516Z,12.30
2017-07-06T20:03:42.046Z,12.07
2017-07-06T20:06:09.635Z,14.02
2017-07-06T20:08:37.166Z,12.70
2017-07-06T20:11:04.694Z,11.38
2017-07-06T20:13:33.266Z,13.15
2017-07-06T20:16:01.578Z,12.40
2017-07-06T20:18:29.101Z,14.77
2017-07-06T20:20:57.542Z,11.80
2017-07-06T20:23:25.082Z,13.80
2017-07-06T20:25:52.617Z,13.07
2017-07-06T20:28:20.205Z,12.73
2017-07-06T20:30:47.957Z,14.07
2017-07-06T20:33:15.498Z,14.10
2017-07-06T20:35:43.070Z,14.38
2017-07-06T20:38:10.621Z,13.90
2017-07-06T20:40:38.419Z,14.40
2017-07-06T20:43:09.810Z,14.68
2017-07-06T20:45:37.365Z,16.30
2017-07-06T20:48:04.941Z,18.40
2017-07-06T20:50:32.485Z,16.77
2017-07-06T20:53:00.101Z,17.52
2017-07-06T20:55:27.718Z,17.70
2017-07-06T20:57:55.429Z,19.40
2017-07-06T21:00:22.934Z,18.87
2017-07-06T21:02:50.711Z,19.60
2017-07-06T21:05:18.433Z,20.47
2017-07-06T21:07:46.466Z,17.65
2017-07-06T21:10:14.205Z,18.30
2017-07-06T21:12:41.821Z,17.75
2017-07-06T21:15:10.281Z,19.10
2017-07-06T21:17:38.029Z,17.37
2017-07-06T21:20:05.876Z,17.55
2017-07-06T21:22:33.573Z,17.92
2017-07-06T21:25:01.780Z,18.05
2017-07-06T21:27:29.445Z,16.77
2017-07-06T21:29:57.229Z,15.70
2017-07-06T21:32:24.841Z,16.30
2017-07-06T21:34:53.469Z,17.00
2017-07-06T21:37:21.345Z,18.05
2017-07-06T21:39:48.872Z,16.45
2017-07-06T21:42:18.037Z,15.80
2017-07-06T21:44:46.858Z,15.73
2017-07-06T21:47:14.364Z,15.75
2017-07-06T21:49:42.165Z,15.20
2017-07-06T21:52:09.793Z,14.87
2017-07-06T21:54:38.185Z,15.10
2017-07-06T21:57:06.463Z,14.25
2017-07-06T21:59:34.090Z,15.40
2017-07-06T22:02:01.592Z,15.25
2017-07-06T22:04:29.306Z,14.63
2017-07-06T22:06:56.979Z,13.18
2017-07-06T22:09:24.548Z,12.02
2017-07-06T22:11:53.032Z,7.82
2017-07-06T22:14:20.842Z,14.68
2017-07-06T22:16:48.390Z,16.58
2017-07-06T22:19:15.899Z,18.08
2017-07-06T22:21:44.438Z,14.30
2017-07-06T22:24:11.944Z,14.80
2017-07-06T22:26:40.673Z,14.77
2017-07-06T22:29:08.188Z,19.92
2017-07-06T22:31:35.698Z,18.90
2017-07-06T22:34:03.228Z,19.60
2017-07-06T22:36:30.732Z,18.85
2017-07-06T22:38:58.583Z,18.73
2017-07-06T22:41:26.105Z,19.77
2017-07-06T22:43:53.829Z,17.50
2017-07-06T22:46:22.113Z,17.00
2017-07-06T22:48:50.518Z,17.62
2017-07-06T22:51:18.450Z,14.25
2017-07-06T22:53:46.139Z,13.27
2017-07-06T22:56:13.698Z,14.25
2017-07-06T22:58:41.335Z,10.82
2017-07-06T23:01:09.862Z,11.45
2017-07-06T23:03:37.387Z,11.45
2017-07-06T23:06:04.990Z,12.75
2017-07-06T23:08:32.580Z,12.73
2017-07-06T23:11:00.099Z,12.02
2017-07-06T23:13:27.834Z,10.00
2017-07-06T23:15:55.425Z,11.68
2017-07-06T23:18:23.169Z,12.85
2017-07-06T23:20:50.677Z,14.02
2017-07-06T23:23:18.976Z,12.15
2017-07-06T23:25:46.764Z,13.98
2017-07-06T23:28:14.565Z,18.95
2017-07-06T23:30:43.211Z,18.67
2017-07-06T23:33:10.720Z,21.35
2017-07-06T23:35:38.486Z,26.02
2017-07-06T23:38:06.012Z,21.85
2017-07-06T23:40:33.558Z,23.58
2017-07-06T23:43:01.153Z,23.50
2017-07-06T23:45:29.477Z,23.12
2017-07-06T23:47:57.006Z,22.58
2017-07-06T23:50:24.793Z,23.92
2017-07-06T23:52:52.557Z,23.02
2017-07-06T23:55:20.142Z,23.65
2017-07-06T23:57:47.683Z,25.80
